Algoma, Mississippi
Current Conditions -  °F | °C
As of 2:53 PM on Thursday 23 Oct 2014 (Local Time) from KTUP Reporting Station
Clear Clear  
Wind Chill: 65°   Ceiling: Unl
Heat Index: 65°   Visibility: 10mi
Dew Point: 44°   Wind: 3mph
Humidity: 47%   Direction: NA
Pressure: 30.1"   Gusts: NA
Location:  34.18°N, 89.03°W
Report Text: KTUP 231953Z AUTO VRB03KT 10SM CLR 18/07 A3010 RMK AO2 SLP193 T01830067 PWINO
Loading
Personal Weather Stations






























Interactive Weather Map
Tropical Storm Tracking
New forecast layout! Learn more

10-Day Weather Forecast

Advertisements
Track Severe Weather on mobile